createdAt,value
2019-03-13T00:00:37.737Z,29.97
2019-03-13T00:03:08.038Z,29.13
2019-03-13T00:05:37.587Z,31.73
2019-03-13T00:08:07.413Z,31.13
2019-03-13T00:10:37.193Z,28.37
2019-03-13T00:13:06.857Z,29.50
2019-03-13T00:15:36.404Z,28.37
2019-03-13T00:18:06.534Z,28.63
2019-03-13T00:20:36.149Z,29.07
2019-03-13T00:23:05.820Z,29.70
2019-03-13T00:25:35.381Z,30.37
2019-03-13T00:28:04.978Z,29.93
2019-03-13T00:30:35.894Z,29.17
2019-03-13T00:33:05.546Z,29.77
2019-03-13T00:35:35.106Z,27.23
2019-03-13T00:38:04.949Z,28.43
2019-03-13T00:40:34.508Z,28.83
2019-03-13T00:43:04.086Z,28.33
2019-03-13T00:45:33.636Z,27.80
2019-03-13T00:48:03.216Z,28.60
2019-03-13T00:50:33.376Z,24.43
2019-03-13T00:53:02.954Z,26.97
2019-03-13T00:55:32.516Z,27.03
2019-03-13T00:58:02.868Z,28.10
2019-03-13T01:00:34.073Z,27.53
2019-03-13T01:03:04.732Z,23.60
2019-03-13T01:05:36.493Z,26.20
2019-03-13T01:08:06.514Z,26.70
2019-03-13T01:10:36.549Z,25.17
2019-03-13T01:13:06.571Z,24.00
2019-03-13T01:15:36.776Z,23.63
2019-03-13T01:18:06.397Z,25.07
2019-03-13T01:20:36.490Z,23.63
2019-03-13T01:23:06.050Z,21.20
2019-03-13T01:25:35.636Z,24.77
2019-03-13T01:28:06.024Z,21.30
2019-03-13T01:30:37.249Z,24.57
2019-03-13T01:33:09.578Z,20.10
2019-03-13T01:35:40.806Z,19.60
2019-03-13T01:38:10.361Z,21.90
2019-03-13T01:40:39.957Z,21.37
2019-03-13T01:43:09.566Z,19.90
2019-03-13T01:45:39.274Z,22.03
2019-03-13T01:48:08.828Z,19.97
2019-03-13T01:50:38.475Z,19.97
2019-03-13T01:53:08.031Z,21.10
2019-03-13T01:55:37.620Z,18.70
2019-03-13T01:58:07.173Z,19.53
2019-03-13T02:00:37.801Z,16.07
2019-03-13T02:03:07.342Z,19.40
2019-03-13T02:05:36.925Z,17.97
2019-03-13T02:08:07.453Z,18.33
2019-03-13T02:10:37.049Z,18.13
2019-03-13T02:13:06.978Z,17.47
2019-03-13T02:15:36.560Z,17.87
2019-03-13T02:18:06.173Z,16.57
2019-03-13T02:20:35.775Z,17.57
2019-03-13T02:23:05.406Z,16.53
2019-03-13T02:25:35.009Z,17.13
2019-03-13T02:28:04.769Z,16.30
2019-03-13T02:30:34.724Z,16.67
2019-03-13T02:33:04.273Z,16.97
2019-03-13T02:35:33.845Z,15.53
2019-03-13T02:38:03.388Z,15.97
2019-03-13T02:40:32.970Z,16.03
2019-03-13T02:43:02.518Z,14.90
2019-03-13T02:45:32.209Z,13.67
2019-03-13T02:48:01.888Z,15.43
2019-03-13T02:50:31.480Z,14.93
2019-03-13T02:53:01.070Z,16.30
2019-03-13T02:55:30.618Z,17.10
2019-03-13T02:58:00.204Z,18.27
2019-03-13T03:00:46.599Z,16.27
2019-03-13T03:03:27.713Z,19.03
2019-03-13T03:05:58.996Z,17.50
2019-03-13T03:08:28.558Z,15.23
2019-03-13T03:10:58.233Z,17.37
2019-03-13T03:13:27.790Z,17.23
2019-03-13T03:15:57.292Z,16.10
2019-03-13T03:18:26.862Z,16.83
2019-03-13T03:20:56.379Z,15.67
2019-03-13T03:23:25.956Z,15.97
2019-03-13T03:25:55.551Z,14.67
2019-03-13T03:28:25.090Z,15.20
2019-03-13T03:30:54.643Z,14.33
2019-03-13T03:33:24.197Z,14.07
2019-03-13T03:35:55.223Z,13.93
2019-03-13T03:38:24.760Z,13.63
2019-03-13T03:40:54.247Z,13.97
2019-03-13T03:43:39.434Z,13.57
2019-03-13T03:45:54.887Z,13.63
2019-03-13T03:48:24.437Z,13.33
2019-03-13T03:50:53.928Z,12.97
2019-03-13T03:53:23.462Z,13.60
2019-03-13T03:55:53.442Z,13.73
2019-03-13T03:58:28.702Z,13.30
2019-03-13T04:00:55.634Z,13.03
2019-03-13T04:03:25.185Z,10.97
2019-03-13T04:05:54.745Z,12.30
2019-03-13T04:08:24.290Z,13.83
2019-03-13T04:10:53.776Z,14.33
2019-03-13T04:13:23.306Z,13.47
2019-03-13T04:15:53.530Z,13.33
2019-03-13T04:18:23.070Z,14.13
2019-03-13T04:20:52.570Z,13.83
2019-03-13T04:23:22.113Z,12.37
2019-03-13T04:25:51.638Z,12.63
2019-03-13T04:28:21.167Z,13.70
2019-03-13T04:30:54.630Z,13.47
2019-03-13T04:33:26.871Z,13.13
2019-03-13T04:35:55.564Z,13.47
2019-03-13T04:38:25.125Z,15.47
2019-03-13T04:40:54.588Z,13.10
2019-03-13T04:43:24.114Z,12.30
2019-03-13T04:45:53.605Z,13.60
2019-03-13T04:48:23.138Z,13.57
2019-03-13T04:50:52.629Z,11.83
2019-03-13T04:53:22.154Z,12.00
2019-03-13T04:55:52.646Z,12.63
2019-03-13T04:58:22.382Z,11.57
2019-03-13T05:00:51.881Z,12.33
2019-03-13T05:03:22.374Z,11.93
2019-03-13T05:05:52.411Z,12.00
2019-03-13T05:08:40.527Z,12.27
2019-03-13T05:11:04.894Z,11.43
2019-03-13T05:13:34.439Z,12.00
2019-03-13T05:16:04.095Z,9.73
2019-03-13T05:18:33.642Z,10.20
2019-03-13T05:21:04.291Z,10.60
2019-03-13T05:23:33.839Z,9.90
2019-03-13T05:26:03.334Z,9.80
2019-03-13T05:28:32.982Z,9.10
2019-03-13T05:31:02.478Z,8.80
2019-03-13T05:33:32.026Z,8.90
2019-03-13T05:36:01.518Z,8.83
2019-03-13T05:38:31.074Z,8.57
2019-03-13T05:41:00.678Z,8.80
2019-03-13T05:43:31.837Z,7.63
2019-03-13T05:46:01.322Z,7.63
2019-03-13T05:48:32.394Z,7.80
2019-03-13T05:51:01.899Z,7.40
2019-03-13T05:53:31.425Z,7.20
2019-03-13T05:56:00.927Z,7.10
2019-03-13T05:58:30.484Z,7.50
2019-03-13T06:01:02.759Z,8.20
2019-03-13T06:03:32.306Z,9.83
2019-03-13T06:06:01.798Z,9.90
2019-03-13T06:08:31.355Z,8.33
2019-03-13T06:11:00.996Z,7.27
2019-03-13T06:13:30.598Z,7.53
2019-03-13T06:16:00.101Z,8.30
2019-03-13T06:18:29.667Z,7.23
2019-03-13T06:21:00.707Z,8.53
2019-03-13T06:23:30.265Z,7.37
2019-03-13T06:25:59.829Z,8.50
2019-03-13T06:28:29.355Z,10.40
2019-03-13T06:30:59.943Z,6.80
2019-03-13T06:33:29.430Z,7.57
2019-03-13T06:35:58.958Z,7.43
2019-03-13T06:38:28.438Z,7.63
2019-03-13T06:40:57.967Z,7.87
2019-03-13T06:43:27.453Z,8.37
2019-03-13T06:45:58.031Z,7.07
2019-03-13T06:48:27.522Z,7.43
2019-03-13T06:50:57.062Z,7.17
2019-03-13T06:53:26.546Z,6.57
2019-03-13T06:55:56.082Z,7.00
2019-03-13T06:58:27.217Z,7.37
2019-03-13T07:01:07.206Z,7.27
2019-03-13T07:03:38.604Z,6.33
2019-03-13T07:06:16.791Z,7.93
2019-03-13T07:09:02.656Z,7.73
2019-03-13T07:11:35.713Z,8.80
2019-03-13T07:14:06.996Z,12.87
2019-03-13T07:16:38.190Z,19.80
2019-03-13T07:19:09.327Z,21.47
2019-03-13T07:21:49.386Z,11.87
2019-03-13T07:24:26.462Z,10.30
2019-03-13T07:26:57.635Z,10.80
2019-03-13T07:29:31.710Z,10.33
2019-03-13T07:32:12.585Z,11.07
2019-03-13T07:34:59.598Z,15.07
2019-03-13T07:37:33.188Z,9.90
2019-03-13T07:40:07.115Z,9.60
2019-03-13T07:42:49.976Z,10.37
2019-03-13T07:45:33.026Z,9.13
2019-03-13T07:48:15.828Z,9.73
2019-03-13T07:50:47.010Z,9.77
2019-03-13T07:53:29.682Z,10.43
2019-03-13T07:56:00.881Z,11.10
2019-03-13T07:58:43.845Z,9.90
2019-03-13T08:01:13.811Z,11.00
2019-03-13T08:03:47.635Z,10.83
2019-03-13T08:06:35.039Z,11.50
2019-03-13T08:09:25.846Z,15.87
2019-03-13T08:11:57.123Z,10.20
2019-03-13T08:14:43.298Z,9.00
2019-03-13T08:17:15.259Z,10.73
2019-03-13T08:19:49.095Z,10.70
2019-03-13T08:22:36.256Z,10.77
2019-03-13T08:25:13.202Z,13.93
2019-03-13T08:27:44.390Z,19.90
2019-03-13T08:30:20.379Z,11.23
2019-03-13T08:33:03.744Z,11.77
2019-03-13T08:35:49.944Z,13.50
2019-03-13T08:38:28.619Z,11.67
2019-03-13T08:41:05.587Z,16.33
2019-03-13T08:43:54.515Z,13.93
2019-03-13T08:46:38.608Z,12.07
2019-03-13T08:49:24.854Z,11.23
2019-03-13T08:51:55.991Z,11.33
2019-03-13T08:54:27.176Z,15.73
2019-03-13T08:57:13.464Z,15.13
2019-03-13T08:59:47.086Z,13.30
2019-03-13T09:02:21.316Z,11.77
2019-03-13T09:04:55.002Z,11.40
2019-03-13T09:07:41.174Z,13.67
2019-03-13T09:10:32.094Z,14.97
2019-03-13T09:13:06.227Z,13.20
2019-03-13T09:15:37.731Z,13.47
2019-03-13T09:18:08.870Z,12.60
2019-03-13T09:20:43.039Z,12.73
2019-03-13T09:23:22.870Z,12.53
2019-03-13T09:26:00.087Z,15.00
2019-03-13T09:28:31.371Z,11.53
2019-03-13T09:31:02.570Z,13.07
2019-03-13T09:33:42.635Z,14.37
2019-03-13T09:36:13.824Z,12.63
2019-03-13T09:38:47.994Z,11.77
2019-03-13T09:41:24.758Z,11.87
2019-03-13T09:44:00.016Z,16.13
2019-03-13T09:46:45.998Z,11.40
2019-03-13T09:49:29.212Z,11.40
2019-03-13T09:52:06.471Z,12.67
2019-03-13T09:54:53.830Z,10.60
2019-03-13T09:57:41.307Z,11.30
2019-03-13T10:00:14.674Z,9.00
2019-03-13T10:02:51.920Z,9.63
2019-03-13T10:05:25.754Z,9.37
2019-03-13T10:07:56.926Z,8.43
2019-03-13T10:10:28.358Z,8.17
2019-03-13T10:13:02.527Z,8.70
2019-03-13T10:15:33.961Z,8.17
2019-03-13T10:18:05.546Z,7.67
2019-03-13T10:20:42.735Z,8.00
2019-03-13T10:23:13.938Z,7.47
2019-03-13T10:26:00.232Z,8.53
2019-03-13T10:28:50.339Z,8.33
2019-03-13T10:31:29.713Z,8.20
2019-03-13T10:34:00.925Z,8.40
2019-03-13T10:36:32.063Z,7.00
2019-03-13T10:39:03.283Z,6.27
2019-03-13T10:41:41.520Z,7.00
2019-03-13T10:44:24.737Z,4.37
2019-03-13T10:47:09.466Z,5.30
2019-03-13T10:49:41.351Z,5.13
2019-03-13T10:52:15.251Z,5.10
2019-03-13T10:54:52.291Z,5.77
2019-03-13T10:57:38.578Z,4.10
2019-03-13T11:00:12.763Z,4.77
2019-03-13T11:02:52.809Z,10.87
2019-03-13T11:05:40.002Z,2.87
2019-03-13T11:08:20.151Z,3.03
2019-03-13T11:11:00.414Z,3.73
2019-03-13T11:13:47.703Z,4.67
2019-03-13T11:16:24.806Z,3.43
2019-03-13T11:19:04.817Z,6.50
2019-03-13T11:21:48.055Z,2.70
2019-03-13T11:24:19.187Z,2.50
2019-03-13T11:27:05.122Z,1.73
2019-03-13T11:29:52.543Z,2.87
2019-03-13T11:32:23.728Z,2.13
2019-03-13T11:35:11.204Z,1.80
2019-03-13T11:38:00.180Z,1.77
2019-03-13T11:40:43.522Z,1.80
2019-03-13T11:43:30.858Z,2.13
2019-03-13T11:46:02.065Z,1.80
2019-03-13T11:48:41.754Z,1.80
2019-03-13T11:51:15.924Z,2.33
2019-03-13T11:53:49.775Z,2.20
2019-03-13T11:56:21.879Z,2.37
2019-03-13T11:59:05.019Z,2.80
2019-03-13T12:01:46.042Z,2.73
2019-03-13T12:04:29.479Z,3.60
2019-03-13T12:07:12.557Z,2.97
2019-03-13T12:09:52.586Z,4.33
2019-03-13T12:12:26.559Z,3.60
2019-03-13T12:15:00.515Z,3.10
2019-03-13T12:17:33.414Z,3.17
2019-03-13T12:20:20.854Z,2.10
2019-03-13T12:22:54.769Z,1.77
2019-03-13T12:25:28.830Z,2.33
2019-03-13T12:28:02.905Z,6.27
2019-03-13T12:30:37.132Z,1.73
2019-03-13T12:33:17.420Z,2.33
2019-03-13T12:35:57.428Z,1.90
2019-03-13T12:38:31.271Z,1.60
2019-03-13T12:41:17.761Z,2.13
2019-03-13T12:43:51.663Z,2.17
2019-03-13T12:46:31.933Z,1.83
2019-03-13T12:49:10.122Z,1.80
2019-03-13T12:51:55.827Z,4.70
2019-03-13T12:54:29.935Z,2.50
2019-03-13T12:57:01.150Z,2.33
2019-03-13T12:59:48.563Z,2.47
2019-03-13T13:02:19.744Z,2.10
2019-03-13T13:05:05.748Z,1.87
2019-03-13T13:07:48.703Z,5.37
2019-03-13T13:10:22.554Z,4.40
2019-03-13T13:12:56.239Z,3.47
2019-03-13T13:15:28.334Z,2.77
2019-03-13T13:18:11.430Z,4.90
2019-03-13T13:20:40.919Z,7.17
2019-03-13T13:23:10.511Z,2.50
2019-03-13T13:25:40.134Z,3.87
2019-03-13T13:28:10.003Z,4.00
2019-03-13T13:30:39.583Z,2.40
2019-03-13T13:33:09.106Z,2.07
2019-03-13T13:35:38.635Z,2.00
2019-03-13T13:38:10.196Z,4.03
2019-03-13T13:40:39.406Z,1.87
2019-03-13T13:43:09.138Z,5.40
2019-03-13T13:45:41.714Z,2.17
2019-03-13T13:48:11.266Z,1.70
2019-03-13T13:50:40.807Z,2.23
2019-03-13T13:53:10.339Z,2.70
2019-03-13T13:55:40.049Z,2.13
2019-03-13T13:58:09.531Z,2.30
2019-03-13T14:00:39.151Z,2.43
2019-03-13T14:03:08.643Z,2.40
2019-03-13T14:05:40.754Z,2.40
2019-03-13T14:08:09.399Z,2.67
2019-03-13T14:10:39.687Z,1.60
2019-03-13T14:13:09.174Z,2.67
2019-03-13T14:15:38.738Z,3.03
2019-03-13T14:18:08.654Z,3.30
2019-03-13T14:20:38.174Z,2.07
2019-03-13T14:23:07.662Z,3.07
2019-03-13T14:25:37.875Z,2.67
2019-03-13T14:28:08.478Z,1.83
2019-03-13T14:30:38.045Z,2.80
2019-03-13T14:33:07.887Z,2.60
2019-03-13T14:35:37.647Z,3.00
2019-03-13T14:38:07.161Z,2.87
2019-03-13T14:40:38.378Z,3.20
2019-03-13T14:43:07.875Z,3.10
2019-03-13T14:45:37.822Z,2.73
2019-03-13T14:48:07.316Z,3.50
2019-03-13T14:50:36.912Z,3.27
2019-03-13T14:53:06.433Z,5.23
2019-03-13T14:55:36.115Z,2.40
2019-03-13T14:58:07.108Z,2.33
2019-03-13T15:00:36.680Z,3.03
2019-03-13T15:03:06.276Z,5.90
2019-03-13T15:05:35.794Z,3.30
2019-03-13T15:08:08.053Z,4.30
2019-03-13T15:10:37.631Z,2.47
2019-03-13T15:13:07.243Z,2.90
2019-03-13T15:15:36.747Z,2.90
2019-03-13T15:18:07.110Z,2.60
2019-03-13T15:20:36.725Z,2.13
2019-03-13T15:23:07.518Z,2.47
2019-03-13T15:25:37.714Z,2.50
2019-03-13T15:28:07.202Z,2.67
2019-03-13T15:30:37.035Z,2.57
2019-03-13T15:33:06.624Z,3.27
2019-03-13T15:35:36.274Z,6.57
2019-03-13T15:38:06.062Z,3.20
2019-03-13T15:40:35.563Z,2.77
2019-03-13T15:43:05.162Z,4.00
2019-03-13T15:45:36.191Z,4.73
2019-03-13T15:48:05.870Z,3.43
2019-03-13T15:50:36.025Z,3.37
2019-03-13T15:53:05.565Z,3.00
2019-03-13T15:55:35.069Z,12.67
2019-03-13T15:58:04.750Z,3.90
2019-03-13T16:00:34.318Z,4.70
2019-03-13T16:03:03.932Z,3.30
2019-03-13T16:05:33.470Z,4.23
2019-03-13T16:08:03.075Z,16.53
2019-03-13T16:10:32.566Z,21.80
2019-03-13T16:13:03.738Z,36.47
2019-03-13T16:15:35.046Z,10.47
2019-03-13T16:18:05.968Z,9.33
2019-03-13T16:20:37.003Z,5.33
2019-03-13T16:23:06.599Z,5.10
2019-03-13T16:25:36.167Z,25.00
2019-03-13T16:28:05.782Z,18.80
2019-03-13T16:30:52.144Z,9.43
2019-03-13T16:33:22.652Z,21.37
2019-03-13T16:35:52.134Z,6.23
2019-03-13T16:38:21.689Z,3.53
2019-03-13T16:40:51.150Z,6.33
2019-03-13T16:43:20.686Z,3.97
2019-03-13T16:45:50.170Z,3.00
2019-03-13T16:48:19.698Z,3.43
2019-03-13T16:50:49.178Z,3.90
2019-03-13T16:53:19.678Z,4.60
2019-03-13T16:55:49.172Z,6.10
2019-03-13T16:58:18.690Z,3.27
2019-03-13T17:00:50.480Z,7.03
2019-03-13T17:03:19.478Z,32.73
2019-03-13T17:05:48.959Z,6.57
2019-03-13T17:08:18.490Z,4.27
2019-03-13T17:10:47.974Z,6.90
2019-03-13T17:13:17.507Z,4.17
2019-03-13T17:15:47.063Z,2.90
2019-03-13T17:18:16.650Z,3.53
2019-03-13T17:20:46.134Z,2.60
2019-03-13T17:23:15.674Z,4.13
2019-03-13T17:25:45.230Z,3.20
2019-03-13T17:28:14.838Z,3.00
2019-03-13T17:30:44.334Z,3.87
2019-03-13T17:33:13.866Z,3.40
2019-03-13T17:35:43.395Z,2.87
2019-03-13T17:38:13.062Z,3.60
2019-03-13T17:40:42.550Z,4.00
2019-03-13T17:43:12.082Z,3.93
2019-03-13T17:45:41.574Z,4.27
2019-03-13T17:48:11.098Z,7.17
2019-03-13T17:50:40.623Z,5.37
2019-03-13T17:53:10.145Z,14.77
2019-03-13T17:55:39.708Z,4.83
2019-03-13T17:58:09.274Z,7.70
2019-03-13T18:00:50.907Z,5.40
2019-03-13T18:03:21.538Z,5.27
2019-03-13T18:05:51.030Z,5.80
2019-03-13T18:08:20.693Z,5.97
2019-03-13T18:10:50.218Z,8.47
2019-03-13T18:13:19.790Z,6.53
2019-03-13T18:15:49.287Z,8.60
2019-03-13T18:18:18.827Z,5.47
2019-03-13T18:20:48.390Z,5.77
2019-03-13T18:23:17.922Z,5.53
2019-03-13T18:25:47.405Z,6.20
2019-03-13T18:28:16.951Z,7.23
2019-03-13T18:30:46.455Z,10.87
2019-03-13T18:33:15.974Z,8.07
2019-03-13T18:35:45.583Z,8.00
2019-03-13T18:38:15.190Z,7.33
2019-03-13T18:40:45.918Z,7.30
2019-03-13T18:43:15.466Z,7.97
2019-03-13T18:45:44.949Z,7.27
2019-03-13T18:48:14.483Z,7.53
2019-03-13T18:50:45.030Z,8.13
2019-03-13T18:53:14.562Z,8.23
2019-03-13T18:55:44.058Z,6.63
2019-03-13T18:58:14.311Z,8.03
2019-03-13T19:00:43.888Z,8.13
2019-03-13T19:03:13.486Z,9.53
2019-03-13T19:05:42.996Z,8.40
2019-03-13T19:08:12.528Z,7.70
2019-03-13T19:10:42.014Z,13.50
2019-03-13T19:13:11.576Z,7.13
2019-03-13T19:15:41.110Z,8.33
2019-03-13T19:18:11.260Z,7.83
2019-03-13T19:20:40.747Z,7.13
2019-03-13T19:23:10.309Z,7.17
2019-03-13T19:25:40.194Z,6.50
2019-03-13T19:28:09.715Z,7.50
2019-03-13T19:30:39.440Z,6.93
2019-03-13T19:33:09.011Z,6.47
2019-03-13T19:35:38.694Z,7.10
2019-03-13T19:38:14.003Z,8.70
2019-03-13T19:40:43.895Z,12.63
2019-03-13T19:43:13.393Z,12.00
2019-03-13T19:45:47.486Z,7.33
2019-03-13T19:48:17.934Z,8.17
2019-03-13T19:50:48.398Z,8.40
2019-03-13T19:53:17.887Z,7.07
2019-03-13T19:55:47.638Z,7.33
2019-03-13T19:58:17.182Z,7.07
2019-03-13T20:00:46.818Z,7.90
2019-03-13T20:03:17.618Z,7.60
2019-03-13T20:05:47.194Z,8.93
2019-03-13T20:08:16.843Z,8.70
2019-03-13T20:10:46.458Z,8.30
2019-03-13T20:13:16.019Z,7.90
2019-03-13T20:15:45.705Z,12.87
2019-03-13T20:18:15.206Z,8.60
2019-03-13T20:20:44.722Z,8.57
2019-03-13T20:23:15.650Z,8.97
2019-03-13T20:25:45.182Z,8.77
2019-03-13T20:28:15.910Z,8.07
2019-03-13T20:30:45.558Z,11.60
2019-03-13T20:33:15.205Z,8.50
2019-03-13T20:35:44.810Z,10.40
2019-03-13T20:38:14.299Z,7.80
2019-03-13T20:40:43.966Z,9.03
2019-03-13T20:43:13.463Z,8.83
2019-03-13T20:45:42.998Z,8.97
2019-03-13T20:48:12.583Z,9.53
2019-03-13T20:50:42.219Z,8.33
2019-03-13T20:53:11.718Z,9.37
2019-03-13T20:55:41.634Z,8.73
2019-03-13T20:58:11.135Z,7.90
2019-03-13T21:00:40.678Z,9.23
2019-03-13T21:03:10.434Z,9.40
2019-03-13T21:05:39.977Z,9.37
2019-03-13T21:08:09.611Z,8.87
2019-03-13T21:10:39.454Z,8.70
2019-03-13T21:13:08.960Z,8.93
2019-03-13T21:15:38.508Z,8.13
2019-03-13T21:18:08.011Z,8.97
2019-03-13T21:20:38.047Z,9.17
2019-03-13T21:23:07.547Z,7.80
2019-03-13T21:25:37.084Z,9.30
2019-03-13T21:28:06.654Z,8.73
2019-03-13T21:30:36.198Z,9.27
2019-03-13T21:33:05.774Z,8.63
2019-03-13T21:35:35.314Z,8.50
2019-03-13T21:38:04.805Z,8.97
2019-03-13T21:40:34.466Z,8.93
2019-03-13T21:43:04.247Z,9.57
2019-03-13T21:45:41.001Z,8.63
2019-03-13T21:48:04.985Z,9.30
2019-03-13T21:50:35.683Z,8.70
2019-03-13T21:53:05.177Z,9.20
2019-03-13T21:55:34.776Z,10.27
2019-03-13T21:58:04.264Z,9.07
2019-03-13T22:00:33.798Z,9.20
2019-03-13T22:03:03.371Z,10.17
2019-03-13T22:05:32.974Z,9.97
2019-03-13T22:08:02.739Z,9.17
2019-03-13T22:10:32.358Z,9.17
2019-03-13T22:13:01.851Z,8.13
2019-03-13T22:15:31.450Z,10.00
2019-03-13T22:18:01.449Z,9.33
2019-03-13T22:20:32.680Z,9.50
2019-03-13T22:23:02.251Z,9.57
2019-03-13T22:25:34.086Z,9.27
2019-03-13T22:28:05.498Z,9.10
2019-03-13T22:30:35.049Z,7.60
2019-03-13T22:33:04.581Z,9.07
2019-03-13T22:35:34.121Z,8.53
2019-03-13T22:38:03.717Z,10.03
2019-03-13T22:40:33.206Z,7.80
2019-03-13T22:43:02.731Z,7.93
2019-03-13T22:45:32.210Z,7.87
2019-03-13T22:48:01.739Z,7.07
2019-03-13T22:50:31.246Z,7.07
2019-03-13T22:53:00.805Z,7.97
2019-03-13T22:55:31.909Z,7.87
2019-03-13T22:58:01.708Z,7.47
2019-03-13T23:00:53.537Z,7.30
2019-03-13T23:03:26.432Z,7.80
2019-03-13T23:05:56.406Z,8.07
2019-03-13T23:08:26.107Z,7.87
2019-03-13T23:10:55.666Z,7.13
2019-03-13T23:13:25.371Z,7.47
2019-03-13T23:15:54.995Z,6.37
2019-03-13T23:18:24.660Z,7.20
2019-03-13T23:20:54.294Z,7.83
2019-03-13T23:23:23.994Z,6.93
2019-03-13T23:25:53.762Z,6.93
2019-03-13T23:28:23.439Z,7.33
2019-03-13T23:30:53.182Z,6.17
2019-03-13T23:33:22.875Z,7.47
2019-03-13T23:35:52.632Z,7.77
2019-03-13T23:38:22.326Z,7.23
2019-03-13T23:40:52.072Z,6.63
2019-03-13T23:43:21.767Z,6.93
2019-03-13T23:45:51.507Z,7.17
2019-03-13T23:48:21.211Z,6.10
2019-03-13T23:50:50.943Z,6.17
2019-03-13T23:53:20.566Z,6.50
2019-03-13T23:55:50.298Z,6.67
2019-03-13T23:58:19.995Z,6.47
